createdAt,value
2023-11-30T00:00:07.542Z,6.35
2023-11-30T00:02:34.149Z,6.75
2023-11-30T00:05:00.702Z,6.45
2023-11-30T00:07:27.265Z,7.13
2023-11-30T00:09:53.871Z,6.55
2023-11-30T00:12:20.497Z,6.20
2023-11-30T00:14:47.078Z,6.07
2023-11-30T00:17:13.622Z,8.35
2023-11-30T00:19:40.147Z,7.05
2023-11-30T00:22:06.754Z,7.10
2023-11-30T00:24:33.345Z,6.57
2023-11-30T00:26:59.909Z,6.55
2023-11-30T00:29:26.470Z,6.50
2023-11-30T00:31:53.042Z,6.38
2023-11-30T00:34:19.602Z,5.57
2023-11-30T00:36:46.125Z,5.97
2023-11-30T00:39:12.704Z,5.80
2023-11-30T00:41:39.571Z,5.95
2023-11-30T00:44:06.093Z,6.55
2023-11-30T00:46:32.689Z,5.45
2023-11-30T00:48:59.275Z,5.10
2023-11-30T00:51:25.918Z,6.38
2023-11-30T00:53:52.602Z,5.53
2023-11-30T00:56:19.135Z,4.97
2023-11-30T00:58:45.626Z,4.97
2023-11-30T01:01:12.106Z,5.60
2023-11-30T01:03:38.781Z,6.60
2023-11-30T01:06:05.658Z,7.63
2023-11-30T01:08:32.347Z,8.90
2023-11-30T01:10:58.996Z,8.52
2023-11-30T01:13:27.561Z,8.45
2023-11-30T01:15:54.088Z,7.63
2023-11-30T01:18:20.801Z,5.13
2023-11-30T01:20:47.582Z,5.35
2023-11-30T01:23:14.417Z,4.03
2023-11-30T01:25:41.010Z,4.10
2023-11-30T01:28:07.608Z,4.80
2023-11-30T01:30:34.121Z,3.85
2023-11-30T01:33:00.820Z,4.45
2023-11-30T01:35:27.395Z,5.40
2023-11-30T01:37:53.913Z,4.22
2023-11-30T01:40:20.416Z,3.78
2023-11-30T01:42:46.964Z,4.18
2023-11-30T01:45:13.619Z,3.35
2023-11-30T01:47:40.457Z,3.85
2023-11-30T01:50:07.411Z,3.72
2023-11-30T01:52:34.455Z,3.20
2023-11-30T01:55:03.109Z,2.97
2023-11-30T01:57:30.512Z,3.75
2023-11-30T01:59:57.316Z,3.30
2023-11-30T02:02:24.304Z,3.92
2023-11-30T02:04:54.036Z,3.38
2023-11-30T02:07:20.691Z,2.25
2023-11-30T02:09:47.377Z,2.88
2023-11-30T02:12:13.994Z,2.45
2023-11-30T02:14:40.513Z,4.63
2023-11-30T02:17:07.042Z,3.97
2023-11-30T02:19:33.579Z,3.10
2023-11-30T02:22:00.196Z,3.88
2023-11-30T02:24:26.848Z,4.28
2023-11-30T02:26:53.544Z,4.10
2023-11-30T02:29:20.131Z,4.88
2023-11-30T02:31:46.834Z,5.32
2023-11-30T02:34:13.533Z,5.15
2023-11-30T02:36:40.011Z,5.13
2023-11-30T02:39:06.769Z,4.75
2023-11-30T02:41:33.319Z,5.03
2023-11-30T02:44:00.413Z,4.80
2023-11-30T02:46:26.991Z,5.22
2023-11-30T02:48:53.675Z,5.13
2023-11-30T02:51:20.324Z,6.03
2023-11-30T02:53:46.897Z,3.85
2023-11-30T02:56:13.426Z,4.22
2023-11-30T02:58:40.012Z,2.78
2023-11-30T03:01:06.620Z,3.00
2023-11-30T03:03:33.368Z,2.75
2023-11-30T03:06:00.080Z,2.30
2023-11-30T03:08:26.636Z,2.20
2023-11-30T03:10:53.441Z,1.60
2023-11-30T03:13:19.933Z,1.73
2023-11-30T03:15:47.732Z,1.20
2023-11-30T03:18:14.647Z,1.35
2023-11-30T03:20:41.328Z,1.00
2023-11-30T03:23:07.944Z,0.88
2023-11-30T03:25:34.519Z,1.40
2023-11-30T03:28:01.070Z,1.20
2023-11-30T03:30:27.879Z,1.23
2023-11-30T03:32:56.645Z,1.20
2023-11-30T03:35:23.216Z,0.85
2023-11-30T03:37:51.285Z,1.00
2023-11-30T03:40:17.791Z,1.80
2023-11-30T03:42:44.290Z,1.00
2023-11-30T03:45:10.923Z,1.20
2023-11-30T03:47:37.614Z,0.98
2023-11-30T03:50:04.376Z,1.15
2023-11-30T03:52:30.953Z,1.40
2023-11-30T03:54:57.491Z,1.60
2023-11-30T03:57:24.112Z,1.20
2023-11-30T03:59:51.130Z,1.30
2023-11-30T04:02:17.975Z,1.05
2023-11-30T04:04:44.686Z,1.30
2023-11-30T04:07:11.329Z,2.45
2023-11-30T04:09:38.202Z,1.63
2023-11-30T04:12:05.257Z,1.45
2023-11-30T04:14:31.797Z,1.45
2023-11-30T04:17:00.782Z,1.13
2023-11-30T04:19:28.987Z,1.52
2023-11-30T04:21:55.491Z,1.23
2023-11-30T04:24:22.091Z,1.10
2023-11-30T04:26:48.739Z,1.00
2023-11-30T04:29:15.253Z,1.48
2023-11-30T04:31:41.838Z,1.20
2023-11-30T04:34:08.340Z,1.05
2023-11-30T04:36:34.914Z,1.55
2023-11-30T04:39:01.540Z,1.30
2023-11-30T04:41:28.064Z,1.30
2023-11-30T04:43:54.561Z,1.33
2023-11-30T04:46:21.085Z,1.30
2023-11-30T04:48:47.800Z,1.73
2023-11-30T04:51:14.434Z,1.67
2023-11-30T04:53:40.984Z,1.05
2023-11-30T04:56:07.990Z,1.52
2023-11-30T04:58:34.545Z,1.08
2023-11-30T05:01:01.065Z,1.20
2023-11-30T05:03:27.735Z,1.25
2023-11-30T05:05:54.483Z,1.45
2023-11-30T05:08:21.036Z,2.17
2023-11-30T05:10:47.516Z,1.60
2023-11-30T05:13:14.091Z,1.35
2023-11-30T05:15:40.799Z,1.35
2023-11-30T05:18:08.040Z,1.80
2023-11-30T05:20:34.672Z,1.40
2023-11-30T05:23:01.337Z,1.50
2023-11-30T05:25:28.584Z,2.22
2023-11-30T05:27:55.232Z,1.73
2023-11-30T05:30:21.790Z,1.58
2023-11-30T05:32:48.306Z,1.35
2023-11-30T05:35:14.867Z,1.33
2023-11-30T05:37:41.432Z,1.63
2023-11-30T05:40:08.689Z,1.20
2023-11-30T05:42:35.276Z,1.30
2023-11-30T05:45:02.186Z,1.05
2023-11-30T05:47:28.741Z,1.45
2023-11-30T05:49:55.416Z,1.02
2023-11-30T05:52:22.021Z,1.00
2023-11-30T05:54:48.566Z,1.33
2023-11-30T05:57:15.612Z,1.20
2023-11-30T05:59:42.378Z,1.27
2023-11-30T06:02:08.970Z,1.27
2023-11-30T06:04:35.724Z,1.52
2023-11-30T06:07:02.278Z,1.65
2023-11-30T06:09:28.885Z,1.40
2023-11-30T06:11:55.484Z,2.60
2023-11-30T06:14:22.121Z,2.47
2023-11-30T06:16:48.767Z,2.33
2023-11-30T06:19:15.379Z,1.85
2023-11-30T06:21:41.889Z,2.25
2023-11-30T06:24:08.431Z,2.00
2023-11-30T06:26:35.044Z,2.13
2023-11-30T06:29:01.647Z,2.08
2023-11-30T06:31:28.181Z,3.08
2023-11-30T06:33:55.162Z,1.80
2023-11-30T06:36:21.722Z,1.77
2023-11-30T06:38:48.351Z,2.35
2023-11-30T06:41:14.960Z,2.33
2023-11-30T06:43:41.689Z,1.77
2023-11-30T06:46:08.488Z,1.65
2023-11-30T06:48:35.203Z,1.90
2023-11-30T06:51:01.725Z,1.48
2023-11-30T06:53:28.259Z,1.52
2023-11-30T06:55:54.818Z,1.25
2023-11-30T06:58:21.317Z,1.75
2023-11-30T07:00:47.983Z,2.80
2023-11-30T07:03:14.803Z,1.55
2023-11-30T07:05:41.538Z,1.55
2023-11-30T07:08:08.221Z,1.42
2023-11-30T07:10:34.745Z,1.88
2023-11-30T07:13:01.233Z,1.52
2023-11-30T07:15:27.922Z,1.38
2023-11-30T07:17:54.572Z,1.15
2023-11-30T07:20:21.166Z,1.70
2023-11-30T07:22:47.704Z,1.50
2023-11-30T07:25:14.205Z,2.22
2023-11-30T07:27:40.713Z,2.45
2023-11-30T07:30:10.867Z,2.78
2023-11-30T07:32:37.856Z,2.55
2023-11-30T07:35:05.524Z,1.98
2023-11-30T07:37:32.063Z,2.65
2023-11-30T07:39:58.596Z,2.35
2023-11-30T07:42:29.925Z,2.50
2023-11-30T07:45:02.320Z,2.40
2023-11-30T07:47:29.544Z,2.22
2023-11-30T07:49:56.169Z,2.80
2023-11-30T07:52:22.787Z,2.38
2023-11-30T07:54:49.363Z,2.28
2023-11-30T07:57:15.969Z,1.70
2023-11-30T07:59:42.532Z,1.85
2023-11-30T08:02:09.047Z,2.10
2023-11-30T08:04:37.566Z,1.92
2023-11-30T08:07:04.744Z,1.75
2023-11-30T08:09:31.295Z,1.58
2023-11-30T08:11:57.839Z,1.50
2023-11-30T08:14:24.366Z,1.65
2023-11-30T08:16:50.878Z,1.70
2023-11-30T08:19:17.457Z,2.35
2023-11-30T08:21:43.922Z,1.83
2023-11-30T08:24:10.522Z,2.10
2023-11-30T08:26:37.144Z,3.63
2023-11-30T08:29:04.138Z,4.18
2023-11-30T08:31:30.705Z,4.05
2023-11-30T08:33:57.360Z,2.13
2023-11-30T08:36:24.143Z,2.50
2023-11-30T08:38:50.744Z,1.90
2023-11-30T08:41:17.404Z,2.03
2023-11-30T08:43:43.962Z,1.80
2023-11-30T08:46:10.572Z,2.10
2023-11-30T08:48:37.168Z,1.98
2023-11-30T08:51:03.805Z,2.80
2023-11-30T08:53:30.470Z,3.35
2023-11-30T08:55:57.043Z,2.75
2023-11-30T08:58:23.543Z,2.63
2023-11-30T09:00:50.085Z,2.80
2023-11-30T09:03:16.674Z,2.55
2023-11-30T09:05:43.258Z,3.70
2023-11-30T09:08:09.769Z,5.18
2023-11-30T09:10:36.284Z,5.43
2023-11-30T09:13:02.868Z,3.42
2023-11-30T09:15:32.947Z,2.38
2023-11-30T09:17:59.634Z,2.58
2023-11-30T09:20:26.162Z,2.85
2023-11-30T09:22:52.762Z,2.45
2023-11-30T09:25:19.257Z,3.10
2023-11-30T09:27:46.123Z,3.20
2023-11-30T09:30:13.710Z,3.25
2023-11-30T09:32:40.484Z,2.70
2023-11-30T09:35:07.342Z,4.95
2023-11-30T09:37:34.197Z,5.32
2023-11-30T09:40:01.250Z,4.15
2023-11-30T09:42:29.356Z,3.80
2023-11-30T09:45:00.027Z,4.55
2023-11-30T09:47:27.765Z,3.92
2023-11-30T09:49:55.628Z,4.10
2023-11-30T09:52:22.975Z,5.45
2023-11-30T09:54:50.319Z,5.95
2023-11-30T09:57:17.069Z,6.95
2023-11-30T09:59:43.689Z,6.90
2023-11-30T10:02:11.224Z,6.57
2023-11-30T10:04:40.894Z,6.25
2023-11-30T10:07:08.899Z,5.68
2023-11-30T10:09:35.844Z,6.57
2023-11-30T10:12:02.670Z,4.78
2023-11-30T10:14:29.255Z,4.38
2023-11-30T10:16:56.010Z,4.80
2023-11-30T10:19:23.955Z,3.90
2023-11-30T10:21:51.668Z,4.28
2023-11-30T10:24:19.003Z,4.82
2023-11-30T10:26:52.149Z,5.53
2023-11-30T10:29:24.875Z,6.88
2023-11-30T10:31:55.345Z,6.32
2023-11-30T10:34:28.938Z,5.38
2023-11-30T10:36:58.500Z,3.53
2023-11-30T10:39:29.138Z,5.22
2023-11-30T10:41:56.864Z,4.93
2023-11-30T10:44:28.108Z,3.90
2023-11-30T10:46:56.937Z,3.72
2023-11-30T10:49:25.559Z,4.10
2023-11-30T10:51:57.239Z,4.28
2023-11-30T10:54:52.818Z,5.40
2023-11-30T10:57:21.060Z,7.05
2023-11-30T10:59:48.624Z,6.93
2023-11-30T11:02:15.867Z,6.05
2023-11-30T11:04:44.505Z,6.55
2023-11-30T11:07:16.591Z,6.28
2023-11-30T11:09:55.095Z,7.10
2023-11-30T11:12:26.969Z,7.20
2023-11-30T11:15:06.784Z,6.72
2023-11-30T11:17:34.393Z,6.90
2023-11-30T11:20:02.251Z,8.10
2023-11-30T11:22:29.488Z,12.80
2023-11-30T11:25:02.948Z,20.38
2023-11-30T11:27:32.181Z,11.32
2023-11-30T11:30:03.066Z,8.82
2023-11-30T11:32:33.570Z,7.13
2023-11-30T11:35:01.783Z,6.95
2023-11-30T11:37:31.035Z,8.27
2023-11-30T11:40:00.699Z,7.45
2023-11-30T11:42:28.210Z,6.05
2023-11-30T11:44:56.068Z,6.50
2023-11-30T11:47:24.061Z,5.30
2023-11-30T11:49:51.316Z,7.05
2023-11-30T11:52:22.994Z,4.45
2023-11-30T11:57:39.100Z,4.45
2023-11-30T12:00:13.553Z,3.95
2023-11-30T12:02:40.385Z,4.72
2023-11-30T12:05:11.597Z,5.13
2023-11-30T12:08:07.355Z,4.50
2023-11-30T12:10:38.186Z,4.60
2023-11-30T12:13:04.696Z,4.33
2023-11-30T12:15:31.295Z,4.18
2023-11-30T12:17:58.090Z,4.63
2023-11-30T12:20:25.787Z,4.30
2023-11-30T12:22:53.271Z,4.07
2023-11-30T12:25:20.889Z,4.07
2023-11-30T12:27:48.451Z,4.75
2023-11-30T12:30:16.760Z,4.80
2023-11-30T12:32:44.471Z,5.97
2023-11-30T12:35:11.385Z,4.53
2023-11-30T12:37:41.097Z,5.07
2023-11-30T12:40:10.000Z,4.82
2023-11-30T12:42:38.331Z,5.50
2023-11-30T12:45:06.418Z,5.47
2023-11-30T12:47:33.610Z,5.38
2023-11-30T12:50:01.177Z,6.72
2023-11-30T12:52:28.814Z,6.55
2023-11-30T12:54:56.458Z,6.53
2023-11-30T12:57:26.357Z,8.88
2023-11-30T12:59:53.642Z,8.85
2023-11-30T13:02:21.030Z,9.68
2023-11-30T13:04:47.776Z,9.32
2023-11-30T13:07:15.142Z,9.35
2023-11-30T13:09:42.248Z,8.48
2023-11-30T13:12:09.834Z,12.20
2023-11-30T13:14:37.073Z,10.88
2023-11-30T13:17:04.191Z,9.73
2023-11-30T13:19:31.647Z,7.65
2023-11-30T13:21:58.974Z,6.88
2023-11-30T13:24:27.028Z,7.57
2023-11-30T13:26:54.736Z,6.00
2023-11-30T13:29:22.416Z,7.90
2023-11-30T13:31:49.926Z,12.32
2023-11-30T13:34:17.366Z,21.75
2023-11-30T13:36:46.096Z,10.00
2023-11-30T13:39:13.209Z,10.05
2023-11-30T13:41:40.152Z,11.55
2023-11-30T13:44:07.276Z,22.38
2023-11-30T13:46:34.434Z,21.95
2023-11-30T13:49:01.617Z,22.83
2023-11-30T13:51:28.538Z,16.95
2023-11-30T13:53:55.696Z,12.32
2023-11-30T13:56:23.068Z,10.00
2023-11-30T13:58:49.813Z,16.48
2023-11-30T14:01:16.917Z,15.73
2023-11-30T14:03:44.434Z,17.27
2023-11-30T14:06:11.306Z,18.88
2023-11-30T14:08:40.176Z,13.23
2023-11-30T14:11:08.215Z,14.00
2023-11-30T14:13:35.672Z,13.02
2023-11-30T14:16:03.148Z,12.35
2023-11-30T14:18:29.878Z,8.27
2023-11-30T14:20:56.641Z,7.63
2023-11-30T14:23:24.228Z,12.20
2023-11-30T14:25:50.899Z,10.57
2023-11-30T14:28:18.749Z,11.35
2023-11-30T14:30:47.531Z,12.60
2023-11-30T14:33:15.238Z,16.33
2023-11-30T14:35:42.681Z,14.88
2023-11-30T14:38:10.245Z,12.35
2023-11-30T14:40:38.237Z,11.68
2023-11-30T14:43:05.799Z,8.50
2023-11-30T14:45:33.080Z,10.13
2023-11-30T14:47:59.885Z,8.98
2023-11-30T14:50:27.142Z,7.55
2023-11-30T14:52:55.283Z,5.63
2023-11-30T14:55:22.752Z,7.95
2023-11-30T14:57:50.648Z,7.93
2023-11-30T15:00:18.580Z,6.75
2023-11-30T15:02:47.201Z,5.97
2023-11-30T15:05:14.922Z,6.90
2023-11-30T15:07:42.871Z,6.70
2023-11-30T15:10:10.625Z,6.35
2023-11-30T15:12:38.526Z,6.68
2023-11-30T15:15:06.527Z,5.90
2023-11-30T15:17:34.645Z,7.03
2023-11-30T15:20:02.489Z,6.88
2023-11-30T15:22:29.962Z,7.90
2023-11-30T15:24:57.387Z,7.07
2023-11-30T15:27:24.799Z,6.60
2023-11-30T15:29:52.023Z,7.43
2023-11-30T15:32:19.554Z,6.70
2023-11-30T15:34:48.025Z,6.07
2023-11-30T15:37:15.813Z,7.50
2023-11-30T15:39:45.688Z,7.18
2023-11-30T15:42:13.027Z,6.40
2023-11-30T15:44:42.457Z,10.48
2023-11-30T15:47:09.830Z,9.43
2023-11-30T15:49:37.425Z,9.90
2023-11-30T15:52:04.262Z,9.23
2023-11-30T15:54:31.524Z,8.55
2023-11-30T15:56:58.212Z,11.15
2023-11-30T15:59:24.937Z,13.23
2023-11-30T16:01:52.327Z,13.52
2023-11-30T16:04:19.063Z,11.45
2023-11-30T16:06:48.009Z,11.80
2023-11-30T16:09:15.286Z,10.70
2023-11-30T16:11:41.846Z,10.95
2023-11-30T16:14:08.479Z,10.52
2023-11-30T16:16:35.187Z,14.55
2023-11-30T16:19:01.802Z,18.05
2023-11-30T16:21:28.875Z,11.38
2023-11-30T16:23:55.532Z,8.45
2023-11-30T16:26:23.635Z,8.13
2023-11-30T16:28:50.308Z,8.23
2023-11-30T16:31:17.030Z,8.05
2023-11-30T16:33:44.007Z,11.95
2023-11-30T16:36:11.019Z,11.88
2023-11-30T16:38:38.054Z,11.00
2023-11-30T16:41:04.922Z,8.05
2023-11-30T16:43:31.522Z,6.75
2023-11-30T16:45:58.248Z,8.30
2023-11-30T16:48:24.845Z,7.97
2023-11-30T16:50:51.471Z,8.50
2023-11-30T16:53:18.027Z,7.55
2023-11-30T16:55:44.658Z,7.47
2023-11-30T16:58:11.238Z,6.20
2023-11-30T17:00:37.785Z,7.03
2023-11-30T17:03:04.510Z,7.75
2023-11-30T17:05:31.248Z,7.90
2023-11-30T17:07:57.938Z,6.55
2023-11-30T17:10:24.500Z,8.50
2023-11-30T17:12:51.187Z,6.65
2023-11-30T17:15:17.752Z,6.93
2023-11-30T17:17:44.660Z,7.82
2023-11-30T17:20:12.026Z,6.07
2023-11-30T17:22:38.554Z,8.43
2023-11-30T17:25:05.466Z,6.72
2023-11-30T17:27:32.173Z,6.72
2023-11-30T17:29:58.669Z,6.55
2023-11-30T17:32:25.325Z,7.72
2023-11-30T17:34:52.181Z,8.68
2023-11-30T17:37:18.848Z,8.20
2023-11-30T17:39:45.454Z,10.35
2023-11-30T17:42:12.077Z,11.65
2023-11-30T17:44:38.637Z,9.73
2023-11-30T17:47:05.296Z,11.32
2023-11-30T17:49:31.933Z,13.98
2023-11-30T17:51:59.087Z,13.20
2023-11-30T17:54:25.676Z,12.75
2023-11-30T17:56:52.280Z,11.18
2023-11-30T17:59:18.791Z,9.55
2023-11-30T18:01:45.350Z,11.57
2023-11-30T18:04:11.974Z,12.35
2023-11-30T18:06:38.504Z,12.65
2023-11-30T18:09:05.044Z,10.68
2023-11-30T18:11:31.523Z,10.05
2023-11-30T18:13:58.016Z,11.18
2023-11-30T18:16:24.565Z,10.98
2023-11-30T18:18:51.223Z,12.88
2023-11-30T18:21:17.868Z,11.52
2023-11-30T18:23:44.548Z,11.40
2023-11-30T18:26:11.064Z,11.60
2023-11-30T18:28:37.655Z,11.30
2023-11-30T18:31:12.107Z,11.73
2023-11-30T18:33:46.866Z,9.93
2023-11-30T18:36:13.732Z,10.38
2023-11-30T18:38:50.126Z,10.82
2023-11-30T18:41:21.593Z,12.07
2023-11-30T18:43:49.793Z,11.10
2023-11-30T18:46:16.647Z,11.27
2023-11-30T18:48:43.498Z,13.32
2023-11-30T18:51:11.350Z,12.27
2023-11-30T18:53:38.052Z,13.02
2023-11-30T18:56:05.141Z,11.57
2023-11-30T21:20:26.928Z,13.20
2023-11-30T21:22:53.302Z,12.25
2023-11-30T21:37:32.909Z,34.80
2023-11-30T21:39:59.554Z,33.67
2023-11-30T21:42:26.049Z,27.08
2023-11-30T21:44:52.556Z,21.70
2023-11-30T21:47:19.128Z,21.50
2023-11-30T21:52:15.172Z,13.23
2023-11-30T21:54:42.609Z,19.55
2023-11-30T21:59:35.811Z,23.83
2023-11-30T22:04:29.204Z,18.05
2023-11-30T22:06:56.210Z,15.02
2023-11-30T22:09:22.713Z,14.95
2023-11-30T22:14:17.247Z,15.27
2023-11-30T22:16:43.781Z,15.27
2023-11-30T22:19:10.427Z,15.63
2023-11-30T22:21:37.001Z,15.75
2023-11-30T22:24:03.686Z,12.32
2023-11-30T22:26:30.291Z,13.05
2023-11-30T22:28:57.050Z,14.35
2023-11-30T22:31:23.520Z,14.10
2023-11-30T22:33:50.205Z,14.05
2023-11-30T22:36:16.760Z,16.40
2023-11-30T22:38:46.191Z,14.98
2023-11-30T22:41:13.142Z,14.93
2023-11-30T22:43:39.656Z,13.80
2023-11-30T22:46:06.518Z,12.65
2023-11-30T22:48:36.269Z,11.23
2023-11-30T22:51:02.806Z,15.80
2023-11-30T22:53:29.374Z,16.05
2023-11-30T22:55:56.006Z,15.25
2023-11-30T22:58:22.717Z,12.60
2023-11-30T23:00:49.421Z,12.77
2023-11-30T23:05:42.824Z,13.48
2023-11-30T23:08:09.285Z,13.23
2023-11-30T23:10:35.715Z,13.23
2023-11-30T23:13:02.430Z,13.30
2023-11-30T23:15:28.987Z,14.30
2023-11-30T23:17:55.612Z,12.43
2023-11-30T23:20:22.068Z,11.10
2023-11-30T23:22:48.584Z,9.32
2023-11-30T23:25:15.219Z,11.27
2023-11-30T23:30:08.415Z,6.82
2023-11-30T23:32:34.991Z,7.90
2023-11-30T23:35:01.330Z,5.97
2023-11-30T23:37:27.923Z,6.57
2023-11-30T23:39:54.430Z,6.25
2023-11-30T23:42:20.964Z,5.45
2023-11-30T23:44:47.400Z,5.15
2023-11-30T23:47:14.022Z,6.45
2023-11-30T23:49:41.315Z,5.20
2023-11-30T23:54:34.459Z,5.15
